Time;durP1;ratioP1;P1;durP2;ratioP2;P2;SDS_P1;SDS_P2;PMS_P1;PMS_P2;Temp;Humidity;BMP_temperature;BMP_pressure;BME280_temperature;BME280_humidity;BME280_pressure;Samples;Min_cycle;Max_cycle;Signal;HPM_P1;HPM_P2
2024/02/16 00:00:16;;;;;;;27.13;17.43;;;;;;;;;;5111305;27;318450;-79
2024/02/16 00:02:45;;;;;;;27.47;14.30;;;;;;;;;;5124929;27;318151;-79
2024/02/16 00:05:15;;;;;;;22.20;12.63;;;;;;;;;;5111031;27;318036;-78
2024/02/16 00:07:43;;;;;;;16.43;11.77;;;;;;;;;;5124356;27;318289;-78
2024/02/16 00:10:12;;;;;;;18.17;10.60;;;;;;;;;;5110796;27;318186;-78
2024/02/16 00:12:43;;;;;;;16.63;9.73;;;;;;;;;;5123047;27;318891;-78
2024/02/16 00:15:10;;;;;;;16.23;9.57;;;;;;;;;;5109597;27;393805;-78
2024/02/16 00:17:38;;;;;;;15.70;9.20;;;;;;;;;;5115060;27;316613;-78
2024/02/16 00:20:07;;;;;;;22.53;10.50;;;;;;;;;;5122637;27;320320;-78
2024/02/16 00:22:36;;;;;;;20.73;12.40;;;;;;;;;;5108716;27;417513;-78
2024/02/16 00:25:04;;;;;;;19.80;10.63;;;;;;;;;;5124159;27;317513;-78
2024/02/16 00:27:32;;;;;;;23.07;12.37;;;;;;;;;;5102136;27;417434;-78
2024/02/16 00:30:02;;;;;;;23.20;14.40;;;;;;;;;;5123476;27;318338;-79
2024/02/16 00:32:30;;;;;;;28.90;17.20;;;;;;;;;;5112221;27;317798;-78
2024/02/16 00:34:59;;;;;;;23.10;15.30;;;;;;;;;;5124450;27;317654;-78
2024/02/16 00:37:26;;;;;;;24.23;14.60;;;;;;;;;;5105697;27;317808;-78
2024/02/16 00:39:54;;;;;;;24.50;15.30;;;;;;;;;;5125784;27;316699;-78
2024/02/16 00:42:23;;;;;;;20.33;13.17;;;;;;;;;;5129808;27;318453;-78
2024/02/16 00:44:51;;;;;;;18.27;12.80;;;;;;;;;;5135246;27;340002;-78
2024/02/16 00:47:20;;;;;;;20.57;12.20;;;;;;;;;;5126421;27;321701;-78
2024/02/16 00:49:47;;;;;;;18.97;12.53;;;;;;;;;;5141197;27;316742;-78
2024/02/16 00:52:15;;;;;;;20.90;12.20;;;;;;;;;;5130131;27;316750;-78
2024/02/16 00:54:43;;;;;;;20.13;11.97;;;;;;;;;;5138751;27;316276;-78
2024/02/16 00:57:11;;;;;;;16.30;11.43;;;;;;;;;;5129828;27;318196;-79
2024/02/16 00:59:37;;;;;;;19.97;11.07;;;;;;;;;;5116232;27;318254;-78
2024/02/16 01:02:05;;;;;;;18.73;11.47;;;;;;;;;;5122141;27;316295;-78
2024/02/16 01:04:35;;;;;;;16.47;11.20;;;;;;;;;;5105691;27;418374;-78
2024/02/16 01:07:03;;;;;;;24.60;10.20;;;;;;;;;;5123613;27;318085;-78
2024/02/16 01:09:31;;;;;;;13.77;9.23;;;;;;;;;;5099523;27;418649;-78
2024/02/16 01:11:58;;;;;;;18.60;10.40;;;;;;;;;;5122861;27;316447;-78
2024/02/16 01:14:26;;;;;;;16.50;11.10;;;;;;;;;;5111715;27;318006;-78
2024/02/16 01:16:54;;;;;;;18.07;10.13;;;;;;;;;;5123583;27;317914;-78
2024/02/16 01:19:23;;;;;;;13.40;9.60;;;;;;;;;;5103026;27;318011;-78
2024/02/16 01:21:57;;;;;;;15.10;10.20;;;;;;;;;;5122366;27;317071;-78
2024/02/16 01:24:25;;;;;;;13.37;9.73;;;;;;;;;;5112338;27;318278;-78
2024/02/16 01:26:54;;;;;;;15.03;9.17;;;;;;;;;;5121500;27;316375;-78
2024/02/16 01:29:20;;;;;;;11.70;8.70;;;;;;;;;;5102187;27;317201;-79
2024/02/16 01:31:49;;;;;;;18.10;9.97;;;;;;;;;;5121608;27;316375;-78
2024/02/16 01:34:17;;;;;;;11.63;8.27;;;;;;;;;;5112203;27;316597;-78
2024/02/16 01:36:45;;;;;;;16.77;10.07;;;;;;;;;;5123942;27;317074;-77
2024/02/16 01:39:13;;;;;;;17.57;11.43;;;;;;;;;;5111849;27;317254;-78
2024/02/16 01:41:41;;;;;;;18.23;11.00;;;;;;;;;;5119867;27;317381;-77
2024/02/16 01:44:08;;;;;;;15.97;11.13;;;;;;;;;;5106718;27;337179;-78
2024/02/16 01:46:36;;;;;;;20.70;12.77;;;;;;;;;;5121568;27;317693;-78
2024/02/16 01:49:03;;;;;;;21.20;11.57;;;;;;;;;;5122688;27;317511;-77
2024/02/16 01:51:33;;;;;;;12.27;9.87;;;;;;;;;;5100136;27;417143;-79
2024/02/16 01:54:04;;;;;;;15.87;10.63;;;;;;;;;;5123404;27;316936;-78
2024/02/16 01:56:34;;;;;;;18.37;10.40;;;;;;;;;;5108764;27;418952;-79
2024/02/16 01:59:01;;;;;;;16.90;10.13;;;;;;;;;;5121650;27;317421;-78
2024/02/16 02:01:29;;;;;;;15.03;9.97;;;;;;;;;;5101808;27;352276;-78
2024/02/16 02:03:56;;;;;;;18.30;10.53;;;;;;;;;;5123089;27;317017;-78
2024/02/16 02:06:24;;;;;;;15.63;9.20;;;;;;;;;;5111138;27;318214;-78
2024/02/16 02:08:51;;;;;;;15.53;9.17;;;;;;;;;;5123399;27;317112;-79
2024/02/16 02:11:19;;;;;;;15.17;10.73;;;;;;;;;;5103167;27;317010;-78
2024/02/16 02:13:49;;;;;;;17.07;9.30;;;;;;;;;;5110068;27;357531;-78
2024/02/16 02:16:17;;;;;;;16.23;9.07;;;;;;;;;;5111874;27;316909;-78
2024/02/16 02:18:44;;;;;;;16.50;9.13;;;;;;;;;;5124044;27;338179;-78
2024/02/16 02:21:14;;;;;;;14.03;8.43;;;;;;;;;;5113548;27;316270;-78
2024/02/16 02:23:44;;;;;;;19.13;9.30;;;;;;;;;;5123233;27;317091;-78
2024/02/16 02:26:10;;;;;;;11.80;8.10;;;;;;;;;;5111718;27;316547;-78
2024/02/16 02:28:38;;;;;;;12.47;9.50;;;;;;;;;;5122748;27;335842;-78
2024/02/16 02:31:08;;;;;;;10.50;8.07;;;;;;;;;;5123837;27;317053;-78
2024/02/16 02:33:39;;;;;;;13.80;7.97;;;;;;;;;;5100408;27;416198;-78
2024/02/16 02:36:07;;;;;;;12.43;6.83;;;;;;;;;;5112778;27;317099;-78
2024/02/16 02:38:34;;;;;;;11.17;6.97;;;;;;;;;;5124461;27;316501;-78
2024/02/16 02:41:04;;;;;;;12.70;7.13;;;;;;;;;;5122655;27;316563;-78
2024/02/16 02:43:31;;;;;;;12.70;7.07;;;;;;;;;;5101049;27;418003;-78
2024/02/16 02:45:59;;;;;;;8.67;6.90;;;;;;;;;;5121877;27;317193;-78
2024/02/16 02:48:28;;;;;;;13.80;7.83;;;;;;;;;;5112846;27;315856;-78
2024/02/16 02:50:59;;;;;;;13.43;8.53;;;;;;;;;;5122929;27;317191;-78
2024/02/16 02:53:28;;;;;;;15.33;9.00;;;;;;;;;;5100197;27;348110;-78
2024/02/16 02:55:55;;;;;;;14.43;8.73;;;;;;;;;;5122536;27;315354;-78
2024/02/16 02:58:25;;;;;;;14.00;7.33;;;;;;;;;;5112398;27;316334;-78
2024/02/16 03:00:54;;;;;;;11.17;7.83;;;;;;;;;;5123149;27;316663;-79
2024/02/16 03:03:21;;;;;;;26.97;15.03;;;;;;;;;;5103657;27;316824;-78
2024/02/16 03:05:51;;;;;;;61.00;28.60;;;;;;;;;;5122033;27;317535;-78
2024/02/16 03:08:20;;;;;;;28.30;16.53;;;;;;;;;;5111325;27;317840;-78
2024/02/16 03:10:48;;;;;;;21.53;12.63;;;;;;;;;;5123924;27;317562;-78
2024/02/16 03:13:23;;;;;;;12.97;9.23;;;;;;;;;;5109725;27;317583;-78
2024/02/16 03:15:53;;;;;;;23.67;13.17;;;;;;;;;;5121807;27;317188;-78
2024/02/16 03:18:22;;;;;;;37.47;22.70;;;;;;;;;;5111198;27;355399;-78
2024/02/16 03:20:50;;;;;;;40.67;23.67;;;;;;;;;;5123186;27;317311;-78
2024/02/16 03:23:19;;;;;;;32.13;19.37;;;;;;;;;;5104665;27;318167;-78
2024/02/16 03:25:46;;;;;;;62.93;32.10;;;;;;;;;;5122944;27;318089;-78
2024/02/16 03:28:14;;;;;;;62.97;35.50;;;;;;;;;;5111847;27;317893;-78
2024/02/16 03:30:42;;;;;;;58.17;32.67;;;;;;;;;;5123259;27;318201;-77
2024/02/16 03:33:10;;;;;;;64.17;33.07;;;;;;;;;;5112238;27;317439;-79
2024/02/16 03:35:40;;;;;;;64.57;34.27;;;;;;;;;;5115103;27;318048;-77
2024/02/16 03:38:07;;;;;;;61.37;37.27;;;;;;;;;;5111377;27;317746;-77
2024/02/16 03:40:36;;;;;;;68.23;37.63;;;;;;;;;;5124017;27;316252;-78
2024/02/16 03:43:04;;;;;;;69.03;38.00;;;;;;;;;;5123973;27;316339;-79
2024/02/16 03:45:32;;;;;;;65.40;35.77;;;;;;;;;;5100851;27;417273;-78
2024/02/16 03:48:00;;;;;;;56.23;32.90;;;;;;;;;;5123759;27;318124;-78
2024/02/16 03:50:33;;;;;;;52.00;32.37;;;;;;;;;;5112571;27;317978;-78
2024/02/16 03:53:00;;;;;;;47.70;29.67;;;;;;;;;;5122793;27;318306;-78
2024/02/16 03:55:26;;;;;;;45.10;30.40;;;;;;;;;;5103527;27;317440;-78
2024/02/16 03:57:55;;;;;;;63.53;36.00;;;;;;;;;;5121308;27;347964;-78
2024/02/16 04:00:23;;;;;;;63.80;35.70;;;;;;;;;;5110410;27;317963;-78
2024/02/16 04:02:51;;;;;;;63.47;39.23;;;;;;;;;;5122732;27;317667;-77
2024/02/16 04:05:21;;;;;;;69.27;39.33;;;;;;;;;;5103080;27;318031;-78
2024/02/16 04:07:54;;;;;;;75.90;46.10;;;;;;;;;;5123192;27;318053;-78
2024/02/16 04:10:21;;;;;;;78.57;45.77;;;;;;;;;;5111103;27;317782;-78
2024/02/16 04:12:48;;;;;;;72.93;43.07;;;;;;;;;;5120325;27;357338;-79
2024/02/16 04:15:16;;;;;;;139.03;65.63;;;;;;;;;;5108026;27;317613;-78
2024/02/16 04:17:44;;;;;;;103.53;56.30;;;;;;;;;;5123933;27;318197;-78
2024/02/16 04:20:12;;;;;;;109.20;62.70;;;;;;;;;;5112642;27;319199;-78
2024/02/16 04:22:40;;;;;;;87.83;49.67;;;;;;;;;;5123510;27;318538;-78
2024/02/16 04:25:16;;;;;;;73.43;46.20;;;;;;;;;;5110098;27;350582;-78
2024/02/16 04:27:44;;;;;;;86.00;57.27;;;;;;;;;;5121748;27;317589;-79
2024/02/16 04:30:13;;;;;;;88.13;56.63;;;;;;;;;;5111759;27;318074;-79
2024/02/16 04:32:42;;;;;;;92.53;66.70;;;;;;;;;;5117331;27;317553;-79
2024/02/16 04:35:11;;;;;;;115.23;84.47;;;;;;;;;;5089948;27;318384;-78
2024/02/16 04:37:40;;;;;;;152.67;101.67;;;;;;;;;;5095096;27;318724;-78
2024/02/16 04:40:11;;;;;;;124.00;92.40;;;;;;;;;;5090631;27;320035;-78
2024/02/16 04:42:41;;;;;;;103.20;74.57;;;;;;;;;;5101337;27;319018;-78
2024/02/16 04:45:12;;;;;;;142.70;93.47;;;;;;;;;;5091494;27;319356;-78
2024/02/16 04:47:41;;;;;;;152.07;106.33;;;;;;;;;;5095933;27;319294;-78
2024/02/16 04:50:10;;;;;;;203.60;128.37;;;;;;;;;;5089857;27;319711;-78
2024/02/16 04:52:43;;;;;;;176.07;117.93;;;;;;;;;;5102786;27;319685;-78
2024/02/16 04:55:15;;;;;;;182.80;114.17;;;;;;;;;;5091138;27;339766;-79
2024/02/16 04:57:43;;;;;;;183.43;123.37;;;;;;;;;;5102302;27;319870;-79
2024/02/16 05:00:13;;;;;;;212.47;134.20;;;;;;;;;;5090721;27;318371;-78
2024/02/16 05:02:41;;;;;;;227.33;141.80;;;;;;;;;;5103060;27;319608;-78
2024/02/16 05:05:08;;;;;;;215.73;139.67;;;;;;;;;;5091315;27;319734;-78
2024/02/16 05:07:36;;;;;;;208.57;136.53;;;;;;;;;;5093675;27;319821;-78
2024/02/16 05:10:05;;;;;;;219.37;139.80;;;;;;;;;;5100824;27;336910;-79
2024/02/16 05:12:35;;;;;;;215.67;142.20;;;;;;;;;;5088512;27;421100;-78
2024/02/16 05:15:03;;;;;;;239.03;154.53;;;;;;;;;;5099688;27;360077;-78
2024/02/16 05:17:33;;;;;;;230.40;143.23;;;;;;;;;;5081942;27;320075;-78
2024/02/16 05:20:01;;;;;;;225.57;140.67;;;;;;;;;;5101543;27;320542;-78
2024/02/16 05:22:29;;;;;;;244.67;148.10;;;;;;;;;;5090043;27;320000;-79
2024/02/16 05:24:57;;;;;;;266.23;171.90;;;;;;;;;;5100191;27;320193;-78
2024/02/16 05:27:25;;;;;;;257.67;160.40;;;;;;;;;;5081696;27;318783;-79
2024/02/16 05:29:54;;;;;;;270.27;163.77;;;;;;;;;;5100576;27;318813;-78
2024/02/16 05:32:23;;;;;;;245.53;152.17;;;;;;;;;;5092372;27;320358;-79
2024/02/16 05:34:51;;;;;;;239.17;145.97;;;;;;;;;;5121519;27;318871;-78
2024/02/16 05:37:20;;;;;;;194.83;127.70;;;;;;;;;;5103464;27;320255;-79
2024/02/16 05:39:56;;;;;;;204.17;118.70;;;;;;;;;;5123892;27;319994;-78
2024/02/16 05:42:23;;;;;;;204.27;123.17;;;;;;;;;;5111800;27;320006;-77
2024/02/16 05:44:52;;;;;;;203.47;129.00;;;;;;;;;;5123743;27;320168;-78
2024/02/16 05:47:27;;;;;;;201.83;126.33;;;;;;;;;;5114560;27;353149;-77
2024/02/16 05:49:54;;;;;;;224.97;133.67;;;;;;;;;;5136483;27;359190;-78
2024/02/16 05:52:23;;;;;;;210.13;130.03;;;;;;;;;;5127794;27;320530;-79
2024/02/16 05:54:51;;;;;;;194.57;125.60;;;;;;;;;;5139274;27;319590;-77
2024/02/16 05:57:18;;;;;;;208.80;127.07;;;;;;;;;;5119078;27;318372;-78
2024/02/16 05:59:46;;;;;;;216.90;127.70;;;;;;;;;;5137832;27;320148;-78
2024/02/16 06:02:14;;;;;;;229.10;135.37;;;;;;;;;;5125833;27;327672;-78
2024/02/16 06:04:44;;;;;;;217.63;127.47;;;;;;;;;;5137100;27;318147;-78
2024/02/16 06:07:12;;;;;;;195.80;120.93;;;;;;;;;;5116731;27;320297;-77
2024/02/16 06:09:42;;;;;;;180.83;112.80;;;;;;;;;;5117705;27;320314;-78
2024/02/16 06:12:09;;;;;;;162.30;101.70;;;;;;;;;;5110037;27;320097;-77
2024/02/16 06:14:38;;;;;;;151.33;94.00;;;;;;;;;;5123332;27;319968;-79
2024/02/16 06:17:06;;;;;;;155.23;91.17;;;;;;;;;;5122086;27;342490;-79
2024/02/16 06:19:33;;;;;;;180.73;97.60;;;;;;;;;;5099570;27;418474;-79
2024/02/16 06:22:17;;;;;;;144.80;85.20;;;;;;;;;;5123530;27;319355;-79
2024/02/16 06:24:45;;;;;;;146.00;82.70;;;;;;;;;;5109017;27;418911;-79
2024/02/16 06:27:13;;;;;;;148.47;83.93;;;;;;;;;;5111280;27;319276;-81
2024/02/16 06:29:42;;;;;;;139.30;79.10;;;;;;;;;;5118090;27;320362;-79
2024/02/16 06:32:11;;;;;;;122.57;72.13;;;;;;;;;;5112191;27;318710;-79
2024/02/16 06:34:39;;;;;;;106.07;67.43;;;;;;;;;;5125294;27;319164;-79
2024/02/16 06:37:06;;;;;;;89.27;51.03;;;;;;;;;;5111446;27;319083;-78
2024/02/16 06:39:35;;;;;;;81.60;48.43;;;;;;;;;;5116175;27;317482;-79
2024/02/16 06:42:03;;;;;;;95.33;50.90;;;;;;;;;;5112885;27;317709;-80
2024/02/16 06:44:31;;;;;;;80.63;51.97;;;;;;;;;;5091731;27;318210;-79
2024/02/16 06:46:58;;;;;;;88.33;53.73;;;;;;;;;;5102160;27;318126;-78
2024/02/16 06:49:26;;;;;;;105.30;58.00;;;;;;;;;;5082751;27;343951;-79
2024/02/16 06:51:54;;;;;;;120.97;66.33;;;;;;;;;;5102509;27;319147;-79
2024/02/16 06:54:21;;;;;;;93.10;54.60;;;;;;;;;;5091221;27;319480;-79
2024/02/16 06:56:51;;;;;;;136.27;76.17;;;;;;;;;;5103060;27;318101;-78
2024/02/16 06:59:18;;;;;;;166.37;84.73;;;;;;;;;;5103654;27;319344;-78
2024/02/16 07:01:46;;;;;;;123.87;67.40;;;;;;;;;;5124759;27;317567;-78
2024/02/16 07:04:14;;;;;;;115.83;65.80;;;;;;;;;;5112964;27;318658;-78
2024/02/16 07:06:41;;;;;;;99.93;56.40;;;;;;;;;;5128430;27;319037;-78
2024/02/16 07:09:08;;;;;;;100.53;56.83;;;;;;;;;;5122157;27;317884;-78
2024/02/16 07:11:37;;;;;;;116.37;60.77;;;;;;;;;;5127287;27;318626;-80
2024/02/16 07:14:06;;;;;;;113.73;62.03;;;;;;;;;;5132687;27;317775;-77
2024/02/16 07:16:34;;;;;;;122.47;59.97;;;;;;;;;;5111424;27;417037;-80
2024/02/16 07:19:02;;;;;;;126.33;63.70;;;;;;;;;;5123240;27;317826;-79
2024/02/16 07:21:32;;;;;;;121.93;64.63;;;;;;;;;;5103001;27;319290;-80
2024/02/16 07:24:03;;;;;;;106.60;62.23;;;;;;;;;;5113334;27;318076;-80
2024/02/16 07:26:33;;;;;;;114.53;65.37;;;;;;;;;;5100867;27;318460;-79
2024/02/16 07:29:02;;;;;;;130.97;73.10;;;;;;;;;;5123206;27;319225;-80
2024/02/16 07:31:36;;;;;;;143.30;85.27;;;;;;;;;;5106678;27;318399;-80
2024/02/16 07:34:04;;;;;;;148.40;80.77;;;;;;;;;;5126732;27;319063;-80
2024/02/16 07:36:36;;;;;;;126.93;68.83;;;;;;;;;;5108696;27;419407;-80
2024/02/16 07:39:04;;;;;;;120.53;69.03;;;;;;;;;;5126233;27;343700;-80
2024/02/16 07:41:32;;;;;;;114.90;66.77;;;;;;;;;;5108927;27;319121;-80
2024/02/16 07:43:59;;;;;;;109.13;62.37;;;;;;;;;;5126516;27;319537;-80
2024/02/16 07:46:27;;;;;;;102.97;60.40;;;;;;;;;;5111477;27;344248;-81
2024/02/16 07:48:56;;;;;;;98.03;56.30;;;;;;;;;;5125331;27;318405;-81
2024/02/16 07:51:25;;;;;;;104.87;57.43;;;;;;;;;;5103894;27;317872;-80
2024/02/16 07:53:52;;;;;;;111.23;63.10;;;;;;;;;;5124553;27;319170;-79
2024/02/16 07:56:20;;;;;;;115.10;64.57;;;;;;;;;;5111850;27;318862;-80
2024/02/16 07:58:49;;;;;;;118.33;65.13;;;;;;;;;;5121539;27;318602;-80
2024/02/16 08:01:16;;;;;;;111.73;67.17;;;;;;;;;;5101468;27;346424;-78
2024/02/16 08:03:42;;;;;;;114.80;64.33;;;;;;;;;;5120888;27;359237;-79
2024/02/16 08:06:11;;;;;;;107.33;63.00;;;;;;;;;;5109998;27;319597;-79
2024/02/16 08:08:39;;;;;;;93.87;57.37;;;;;;;;;;5122304;27;317966;-79
2024/02/16 08:11:06;;;;;;;88.73;56.97;;;;;;;;;;5109931;27;317649;-79
2024/02/16 08:13:34;;;;;;;84.20;49.50;;;;;;;;;;5113554;27;316961;-79
2024/02/16 08:16:06;;;;;;;78.30;50.47;;;;;;;;;;5119438;27;317761;-79
2024/02/16 08:18:37;;;;;;;84.27;54.87;;;;;;;;;;5109876;27;417431;-80
2024/02/16 08:21:05;;;;;;;98.20;59.20;;;;;;;;;;5122558;27;317768;-79
2024/02/16 08:23:34;;;;;;;102.17;56.33;;;;;;;;;;5100985;27;417398;-79
2024/02/16 08:26:01;;;;;;;105.17;61.03;;;;;;;;;;5124767;27;318619;-79
2024/02/16 08:28:28;;;;;;;97.63;56.47;;;;;;;;;;5112070;27;319099;-80
2024/02/16 08:30:56;;;;;;;91.90;54.13;;;;;;;;;;5123305;27;317991;-79
2024/02/16 08:33:23;;;;;;;88.17;53.73;;;;;;;;;;5104506;27;317846;-78
2024/02/16 08:35:51;;;;;;;84.53;47.30;;;;;;;;;;5123970;27;319137;-79
2024/02/16 08:38:20;;;;;;;76.43;48.93;;;;;;;;;;5111332;27;318477;-79
2024/02/16 08:40:51;;;;;;;79.00;45.27;;;;;;;;;;5102403;27;318361;-80
2024/02/16 08:43:18;;;;;;;81.07;42.83;;;;;;;;;;5104619;27;318166;-80
2024/02/16 08:45:46;;;;;;;62.70;38.23;;;;;;;;;;5123485;27;317778;-80
2024/02/16 08:48:14;;;;;;;60.00;36.27;;;;;;;;;;5113046;27;317472;-80
2024/02/16 08:50:42;;;;;;;60.43;32.93;;;;;;;;;;5123359;27;318159;-80
2024/02/16 08:53:10;;;;;;;43.10;26.37;;;;;;;;;;5111188;27;317464;-80
2024/02/16 08:55:38;;;;;;;28.73;17.73;;;;;;;;;;5116502;27;318069;-80
2024/02/16 08:58:08;;;;;;;34.33;18.10;;;;;;;;;;5124551;27;318729;-80
2024/02/16 09:00:36;;;;;;;28.97;16.93;;;;;;;;;;5107058;27;418831;-79
2024/02/16 09:03:03;;;;;;;20.93;12.80;;;;;;;;;;5122968;27;317715;-79
2024/02/16 09:05:32;;;;;;;31.50;14.30;;;;;;;;;;5103458;27;318383;-79
2024/02/16 09:08:03;;;;;;;24.93;14.40;;;;;;;;;;5121640;27;317969;-78
2024/02/16 09:10:31;;;;;;;13.97;8.53;;;;;;;;;;5111825;27;318371;-79
2024/02/16 09:12:58;;;;;;;19.10;10.37;;;;;;;;;;5123084;27;317554;-79
2024/02/16 09:15:42;;;;;;;19.10;12.43;;;;;;;;;;5102795;27;319380;-78
2024/02/16 09:18:09;;;;;;;14.87;10.40;;;;;;;;;;5112553;27;319242;-78
2024/02/16 09:20:36;;;;;;;17.80;11.73;;;;;;;;;;5122003;27;318752;-78
2024/02/16 09:23:04;;;;;;;26.27;13.60;;;;;;;;;;5123533;27;319307;-79
2024/02/16 09:25:32;;;;;;;22.20;13.07;;;;;;;;;;5104056;27;318809;-79
2024/02/16 09:28:02;;;;;;;16.83;11.73;;;;;;;;;;5124544;27;318898;-79
2024/02/16 09:30:32;;;;;;;22.40;12.00;;;;;;;;;;5113958;27;318827;-79
2024/02/16 09:33:02;;;;;;;19.87;10.13;;;;;;;;;;5124772;27;319289;-79
2024/02/16 09:35:31;;;;;;;17.00;10.50;;;;;;;;;;5106357;27;319191;-78
2024/02/16 09:37:58;;;;;;;16.17;9.03;;;;;;;;;;5124405;27;318772;-76
2024/02/16 09:40:26;;;;;;;9.43;6.30;;;;;;;;;;5111227;27;318347;-77
2024/02/16 09:42:54;;;;;;;11.00;6.10;;;;;;;;;;5124259;27;317266;-78
2024/02/16 09:45:24;;;;;;;10.40;5.60;;;;;;;;;;5104572;27;317884;-77
2024/02/16 09:47:53;;;;;;;7.17;5.17;;;;;;;;;;5123204;27;318496;-76
2024/02/16 09:50:23;;;;;;;7.23;5.20;;;;;;;;;;5112422;27;317038;-76
2024/02/16 09:52:52;;;;;;;9.23;5.70;;;;;;;;;;5123427;27;316961;-76
2024/02/16 09:55:19;;;;;;;10.70;4.87;;;;;;;;;;5105891;27;317723;-77
2024/02/16 09:57:46;;;;;;;6.77;4.40;;;;;;;;;;5124700;27;318815;-77
2024/02/16 10:00:15;;;;;;;8.30;5.10;;;;;;;;;;5114001;27;316892;-77
2024/02/16 10:02:44;;;;;;;9.40;5.13;;;;;;;;;;5130795;27;317255;-80
2024/02/16 10:05:16;;;;;;;10.33;4.53;;;;;;;;;;5125710;27;316980;-81
2024/02/16 10:07:43;;;;;;;9.83;4.67;;;;;;;;;;5133928;27;318118;-79
2024/02/16 10:10:21;;;;;;;13.43;5.73;;;;;;;;;;5125791;27;316393;-80
2024/02/16 10:12:49;;;;;;;7.37;4.67;;;;;;;;;;5137070;27;316052;-80
2024/02/16 10:15:22;;;;;;;7.77;4.77;;;;;;;;;;5114320;27;316853;-79
2024/02/16 10:18:04;;;;;;;5.63;4.33;;;;;;;;;;5128169;27;317378;-79
2024/02/16 10:20:35;;;;;;;6.13;4.40;;;;;;;;;;5114885;27;316571;-80
2024/02/16 10:23:07;;;;;;;8.17;4.67;;;;;;;;;;5128509;27;317143;-80
2024/02/16 10:25:36;;;;;;;12.03;4.30;;;;;;;;;;5105284;27;416702;-80
2024/02/16 10:28:11;;;;;;;6.20;4.50;;;;;;;;;;5125947;27;318173;-79
2024/02/16 10:30:42;;;;;;;5.90;3.93;;;;;;;;;;5111299;27;416510;-80
2024/02/16 10:33:12;;;;;;;6.03;3.83;;;;;;;;;;5113469;27;317437;-80
2024/02/16 10:35:42;;;;;;;11.20;4.63;;;;;;;;;;5120701;27;317230;-79
2024/02/16 10:38:11;;;;;;;17.27;4.30;;;;;;;;;;5114908;27;317187;-79
2024/02/16 10:40:40;;;;;;;6.67;3.67;;;;;;;;;;5126079;27;318271;-80
2024/02/16 10:43:09;;;;;;;8.73;3.70;;;;;;;;;;5115708;27;317158;-80
2024/02/16 10:45:37;;;;;;;5.83;2.97;;;;;;;;;;5120368;27;317070;-80
2024/02/16 10:48:07;;;;;;;4.67;3.40;;;;;;;;;;5127190;27;316587;-81
2024/02/16 10:50:36;;;;;;;5.30;3.27;;;;;;;;;;5111199;27;418158;-80
2024/02/16 10:53:18;;;;;;;6.60;3.07;;;;;;;;;;5127991;27;317453;-81
2024/02/16 10:55:47;;;;;;;3.53;3.23;;;;;;;;;;5111897;27;416094;-80
2024/02/16 10:58:13;;;;;;;7.87;4.30;;;;;;;;;;5115665;27;317505;-78
2024/02/16 11:00:52;;;;;;;8.40;4.60;;;;;;;;;;5126580;27;317063;-79
2024/02/16 11:03:25;;;;;;;5.37;3.40;;;;;;;;;;5107439;27;316825;-80
2024/02/16 11:05:52;;;;;;;5.40;3.20;;;;;;;;;;5126098;27;317285;-79
2024/02/16 11:08:27;;;;;;;4.93;3.30;;;;;;;;;;5104816;27;316047;-80
2024/02/16 11:10:56;;;;;;;5.57;3.23;;;;;;;;;;5127325;27;316464;-82
2024/02/16 11:13:25;;;;;;;5.47;4.30;;;;;;;;;;5108950;27;317260;-81
2024/02/16 11:16:02;;;;;;;4.97;3.63;;;;;;;;;;5127078;27;316820;-82
2024/02/16 11:18:32;;;;;;;7.50;3.50;;;;;;;;;;5116649;27;317094;-81
2024/02/16 11:21:01;;;;;;;8.03;3.07;;;;;;;;;;5125087;27;316817;-81
2024/02/16 11:23:32;;;;;;;8.67;3.20;;;;;;;;;;5107691;27;316906;-81
2024/02/16 11:26:04;;;;;;;3.63;3.13;;;;;;;;;;5124295;27;317063;-82
2024/02/16 11:28:33;;;;;;;5.03;3.30;;;;;;;;;;5110228;27;353927;-81
2024/02/16 11:31:02;;;;;;;4.77;3.53;;;;;;;;;;5125174;27;317581;-82
2024/02/16 11:33:33;;;;;;;4.23;2.93;;;;;;;;;;5106082;27;317274;-81
2024/02/16 11:36:03;;;;;;;8.03;3.67;;;;;;;;;;5125883;27;315875;-80
2024/02/16 11:38:33;;;;;;;4.77;3.37;;;;;;;;;;5113914;27;316659;-81
2024/02/16 11:41:03;;;;;;;7.57;3.63;;;;;;;;;;5127440;27;317232;-80
2024/02/16 11:43:32;;;;;;;5.07;2.97;;;;;;;;;;5110304;27;317207;-82
2024/02/16 11:45:59;;;;;;;4.00;2.60;;;;;;;;;;5125399;27;316257;-81
2024/02/16 11:48:28;;;;;;;5.30;3.53;;;;;;;;;;5116498;27;317069;-81
2024/02/16 11:53:28;;;;;;;6.47;2.40;;;;;;;;;;5078328;27;316861;-81
2024/02/16 11:55:57;;;;;;;5.07;3.03;;;;;;;;;;5127823;27;316991;-81
2024/02/16 11:58:25;;;;;;;7.10;3.67;;;;;;;;;;5115138;27;318303;-82
2024/02/16 12:00:54;;;;;;;12.53;5.53;;;;;;;;;;5126856;27;315318;-81
2024/02/16 12:03:21;;;;;;;9.97;6.20;;;;;;;;;;5108394;27;318508;-82
2024/02/16 12:05:53;;;;;;;8.50;3.50;;;;;;;;;;5127452;27;317045;-81
2024/02/16 12:08:21;;;;;;;10.13;3.93;;;;;;;;;;5115471;27;316817;-81
2024/02/16 12:10:51;;;;;;;108.57;42.75;;;;;;;;;;5127636;27;318893;-81
2024/02/16 12:13:21;;;;;;;38.00;15.37;;;;;;;;;;5108819;27;325935;-82
2024/02/16 12:15:50;;;;;;;8.30;5.20;;;;;;;;;;5119653;27;350168;-80
2024/02/16 12:18:25;;;;;;;17.90;4.93;;;;;;;;;;5132723;27;316162;-81
2024/02/16 12:21:00;;;;;;;7.23;4.47;;;;;;;;;;5145353;27;316348;-80
2024/02/16 12:23:30;;;;;;;12.87;5.13;;;;;;;;;;5126723;27;315931;-80
2024/02/16 12:25:57;;;;;;;5.80;3.40;;;;;;;;;;5143865;27;316480;-80
2024/02/16 12:28:28;;;;;;;5.43;3.40;;;;;;;;;;5131438;27;339401;-79
2024/02/16 12:30:57;;;;;;;8.63;3.80;;;;;;;;;;5143531;27;315468;-80
2024/02/16 12:33:26;;;;;;;15.53;3.80;;;;;;;;;;5117356;27;321807;-80
2024/02/16 12:35:54;;;;;;;5.90;4.37;;;;;;;;;;5126855;27;318193;-79
2024/02/16 12:38:22;;;;;;;5.53;3.77;;;;;;;;;;5108829;27;316665;-79
2024/02/16 12:40:52;;;;;;;9.07;3.63;;;;;;;;;;5125759;27;315344;-79
2024/02/16 12:43:19;;;;;;;6.20;4.23;;;;;;;;;;5107493;27;317599;-79
2024/02/16 12:45:47;;;;;;;12.87;7.70;;;;;;;;;;5122714;27;316400;-79
2024/02/16 12:48:16;;;;;;;12.27;9.07;;;;;;;;;;5115284;27;317526;-82
2024/02/16 12:50:44;;;;;;;7.67;4.97;;;;;;;;;;5123813;27;318098;-79
2024/02/16 12:53:11;;;;;;;11.40;5.40;;;;;;;;;;5115592;27;327486;-79
2024/02/16 12:55:38;;;;;;;8.97;3.73;;;;;;;;;;5123418;27;317721;-80
2024/02/16 12:58:05;;;;;;;7.97;4.40;;;;;;;;;;5124658;27;318040;-79
2024/02/16 13:00:33;;;;;;;12.30;6.97;;;;;;;;;;5108606;27;417964;-79
2024/02/16 13:03:06;;;;;;;6.17;4.30;;;;;;;;;;5127570;27;317708;-81
2024/02/16 13:05:32;;;;;;;16.13;4.43;;;;;;;;;;5100565;27;416823;-80
2024/02/16 13:07:59;;;;;;;6.73;4.90;;;;;;;;;;5125222;27;318329;-79
2024/02/16 13:10:26;;;;;;;6.97;4.80;;;;;;;;;;5110931;27;316524;-80
2024/02/16 13:12:54;;;;;;;7.40;3.73;;;;;;;;;;5125639;27;316599;-78
2024/02/16 13:15:23;;;;;;;7.83;4.43;;;;;;;;;;5114993;27;317275;-80
2024/02/16 13:17:54;;;;;;;6.17;4.80;;;;;;;;;;5135078;27;320438;-79
2024/02/16 13:20:23;;;;;;;7.30;4.17;;;;;;;;;;5122923;27;316208;-79
2024/02/16 13:22:51;;;;;;;6.73;4.37;;;;;;;;;;5132416;27;317077;-79
2024/02/16 13:25:18;;;;;;;11.43;3.73;;;;;;;;;;5112924;27;317048;-81
2024/02/16 13:27:47;;;;;;;8.07;3.87;;;;;;;;;;5123209;27;318484;-78
2024/02/16 13:30:15;;;;;;;5.53;3.80;;;;;;;;;;5112385;27;315350;-80
2024/02/16 13:32:42;;;;;;;5.30;4.27;;;;;;;;;;5123968;27;317193;-80
2024/02/16 13:37:54;;;;;;;6.43;4.27;;;;;;;;;;5098114;27;317940;-80
2024/02/16 13:40:23;;;;;;;8.17;4.13;;;;;;;;;;5088318;27;316795;-79
2024/02/16 13:42:55;;;;;;;7.63;5.07;;;;;;;;;;5099933;28;317441;-80
2024/02/16 13:45:25;;;;;;;13.20;5.53;;;;;;;;;;5081269;27;316901;-80
2024/02/16 13:47:53;;;;;;;10.43;4.37;;;;;;;;;;5100212;28;316856;-80
2024/02/16 13:50:24;;;;;;;9.20;4.03;;;;;;;;;;5089688;27;318411;-78
2024/02/16 13:52:53;;;;;;;6.20;4.73;;;;;;;;;;5103228;28;316491;-80
2024/02/16 13:55:22;;;;;;;10.47;5.50;;;;;;;;;;5085659;27;315656;-80
2024/02/16 13:57:50;;;;;;;17.53;9.17;;;;;;;;;;5103007;27;318075;-80
2024/02/16 14:00:17;;;;;;;82.93;33.00;;;;;;;;;;5088924;28;318179;-80
2024/02/16 14:02:45;;;;;;;28.47;14.17;;;;;;;;;;5101611;28;317225;-79
2024/02/16 14:05:16;;;;;;;12.40;6.73;;;;;;;;;;5091043;28;319588;-80
2024/02/16 14:07:44;;;;;;;9.97;6.50;;;;;;;;;;5102687;28;318491;-80
2024/02/16 14:10:14;;;;;;;7.83;5.10;;;;;;;;;;5085417;27;317194;-80
2024/02/16 14:12:42;;;;;;;11.03;5.97;;;;;;;;;;5103177;27;315422;-79
2024/02/16 14:15:15;;;;;;;5.17;4.00;;;;;;;;;;5090358;27;317745;-79
2024/02/16 14:17:42;;;;;;;5.07;3.40;;;;;;;;;;5103346;28;317103;-80
2024/02/16 14:20:09;;;;;;;7.40;4.90;;;;;;;;;;5090061;27;323516;-78
2024/02/16 14:22:36;;;;;;;6.63;4.80;;;;;;;;;;5104527;28;315268;-78